sensor_id;sensor_type;location;lat;lon;timestamp;P1;durP1;ratioP1;P2;durP2;ratioP2
19671;SDS011;9983;51.114;13.788;2024-02-14T00:04:16;4.00;;;1.88;;
19671;SDS011;9983;51.114;13.788;2024-02-14T00:09:16;3.33;;;1.63;;
19671;SDS011;9983;51.114;13.788;2024-02-14T00:14:17;2.17;;;1.98;;
19671;SDS011;9983;51.114;13.788;2024-02-14T00:19:19;4.25;;;2.00;;
19671;SDS011;9983;51.114;13.788;2024-02-14T00:24:19;1.80;;;1.70;;
19671;SDS011;9983;51.114;13.788;2024-02-14T00:29:19;3.10;;;1.70;;
19671;SDS011;9983;51.114;13.788;2024-02-14T00:34:19;2.30;;;1.70;;
19671;SDS011;9983;51.114;13.788;2024-02-14T00:39:21;3.03;;;2.00;;
19671;SDS011;9983;51.114;13.788;2024-02-14T00:44:21;1.52;;;1.42;;
19671;SDS011;9983;51.114;13.788;2024-02-14T00:49:21;2.15;;;1.60;;
19671;SDS011;9983;51.114;13.788;2024-02-14T00:54:21;5.63;;;1.90;;
19671;SDS011;9983;51.114;13.788;2024-02-14T00:59:21;2.45;;;2.10;;
19671;SDS011;9983;51.114;13.788;2024-02-14T01:04:21;2.22;;;1.55;;
19671;SDS011;9983;51.114;13.788;2024-02-14T01:09:22;2.22;;;1.70;;
19671;SDS011;9983;51.114;13.788;2024-02-14T01:14:22;3.22;;;1.88;;
19671;SDS011;9983;51.114;13.788;2024-02-14T01:19:22;4.05;;;2.13;;
19671;SDS011;9983;51.114;13.788;2024-02-14T01:24:23;5.10;;;1.80;;
19671;SDS011;9983;51.114;13.788;2024-02-14T01:29:26;1.67;;;1.58;;
19671;SDS011;9983;51.114;13.788;2024-02-14T01:34:27;4.10;;;1.90;;
19671;SDS011;9983;51.114;13.788;2024-02-14T01:39:28;3.85;;;2.03;;
19671;SDS011;9983;51.114;13.788;2024-02-14T01:44:28;3.05;;;1.70;;
19671;SDS011;9983;51.114;13.788;2024-02-14T01:49:28;2.00;;;1.52;;
19671;SDS011;9983;51.114;13.788;2024-02-14T01:54:29;2.67;;;1.55;;
19671;SDS011;9983;51.114;13.788;2024-02-14T01:59:29;1.95;;;1.75;;
19671;SDS011;9983;51.114;13.788;2024-02-14T02:04:30;2.28;;;1.67;;
19671;SDS011;9983;51.114;13.788;2024-02-14T02:09:30;3.13;;;2.05;;
19671;SDS011;9983;51.114;13.788;2024-02-14T02:14:31;2.20;;;1.80;;
19671;SDS011;9983;51.114;13.788;2024-02-14T02:19:31;2.22;;;1.85;;
19671;SDS011;9983;51.114;13.788;2024-02-14T02:24:33;2.63;;;1.70;;
19671;SDS011;9983;51.114;13.788;2024-02-14T02:29:33;3.45;;;1.55;;
19671;SDS011;9983;51.114;13.788;2024-02-14T02:34:33;2.58;;;1.98;;
19671;SDS011;9983;51.114;13.788;2024-02-14T02:39:33;4.13;;;1.35;;
19671;SDS011;9983;51.114;13.788;2024-02-14T02:44:34;1.63;;;1.50;;
19671;SDS011;9983;51.114;13.788;2024-02-14T02:49:34;4.43;;;1.60;;
19671;SDS011;9983;51.114;13.788;2024-02-14T02:54:37;1.65;;;1.55;;
19671;SDS011;9983;51.114;13.788;2024-02-14T02:59:40;3.63;;;1.80;;
19671;SDS011;9983;51.114;13.788;2024-02-14T03:04:42;2.13;;;1.60;;
19671;SDS011;9983;51.114;13.788;2024-02-14T03:09:43;2.38;;;1.70;;
19671;SDS011;9983;51.114;13.788;2024-02-14T03:14:43;1.90;;;1.70;;
19671;SDS011;9983;51.114;13.788;2024-02-14T03:19:44;3.55;;;1.42;;
19671;SDS011;9983;51.114;13.788;2024-02-14T03:24:47;1.70;;;1.60;;
19671;SDS011;9983;51.114;13.788;2024-02-14T03:29:47;2.17;;;1.95;;
19671;SDS011;9983;51.114;13.788;2024-02-14T03:34:48;6.82;;;1.80;;
19671;SDS011;9983;51.114;13.788;2024-02-14T03:39:48;1.38;;;1.27;;
19671;SDS011;9983;51.114;13.788;2024-02-14T03:44:48;2.10;;;1.90;;
19671;SDS011;9983;51.114;13.788;2024-02-14T03:49:48;3.08;;;1.75;;
19671;SDS011;9983;51.114;13.788;2024-02-14T03:54:48;1.90;;;1.55;;
19671;SDS011;9983;51.114;13.788;2024-02-14T03:59:48;1.65;;;1.55;;
19671;SDS011;9983;51.114;13.788;2024-02-14T04:04:49;2.15;;;1.52;;
19671;SDS011;9983;51.114;13.788;2024-02-14T04:09:49;4.25;;;1.58;;
19671;SDS011;9983;51.114;13.788;2024-02-14T04:14:49;1.98;;;1.63;;
19671;SDS011;9983;51.114;13.788;2024-02-14T04:19:49;3.67;;;2.08;;
19671;SDS011;9983;51.114;13.788;2024-02-14T04:24:50;7.65;;;2.05;;
19671;SDS011;9983;51.114;13.788;2024-02-14T04:29:50;2.53;;;1.73;;
19671;SDS011;9983;51.114;13.788;2024-02-14T04:34:50;1.60;;;1.50;;
19671;SDS011;9983;51.114;13.788;2024-02-14T04:39:50;1.70;;;1.60;;
19671;SDS011;9983;51.114;13.788;2024-02-14T04:44:50;1.73;;;1.52;;
19671;SDS011;9983;51.114;13.788;2024-02-14T04:49:50;2.22;;;1.50;;
19671;SDS011;9983;51.114;13.788;2024-02-14T04:54:51;2.47;;;1.38;;
19671;SDS011;9983;51.114;13.788;2024-02-14T04:59:51;1.55;;;1.40;;
19671;SDS011;9983;51.114;13.788;2024-02-14T05:04:51;4.93;;;1.70;;
19671;SDS011;9983;51.114;13.788;2024-02-14T05:09:52;1.50;;;1.40;;
19671;SDS011;9983;51.114;13.788;2024-02-14T05:14:52;1.73;;;1.63;;
19671;SDS011;9983;51.114;13.788;2024-02-14T05:19:52;2.50;;;1.73;;
19671;SDS011;9983;51.114;13.788;2024-02-14T05:24:53;1.63;;;1.52;;
19671;SDS011;9983;51.114;13.788;2024-02-14T05:29:53;2.13;;;1.27;;
19671;SDS011;9983;51.114;13.788;2024-02-14T05:34:53;4.38;;;1.58;;
19671;SDS011;9983;51.114;13.788;2024-02-14T05:39:54;1.88;;;1.67;;
19671;SDS011;9983;51.114;13.788;2024-02-14T05:44:55;1.63;;;1.45;;
19671;SDS011;9983;51.114;13.788;2024-02-14T05:49:55;1.85;;;1.70;;
19671;SDS011;9983;51.114;13.788;2024-02-14T05:54:55;1.70;;;1.60;;
19671;SDS011;9983;51.114;13.788;2024-02-14T05:59:55;2.08;;;1.67;;
19671;SDS011;9983;51.114;13.788;2024-02-14T06:04:55;1.83;;;1.40;;
19671;SDS011;9983;51.114;13.788;2024-02-14T06:09:55;1.95;;;1.80;;
19671;SDS011;9983;51.114;13.788;2024-02-14T06:14:55;1.33;;;1.23;;
19671;SDS011;9983;51.114;13.788;2024-02-14T06:19:55;1.20;;;1.10;;
19671;SDS011;9983;51.114;13.788;2024-02-14T06:24:56;5.90;;;1.52;;
19671;SDS011;9983;51.114;13.788;2024-02-14T06:29:57;1.92;;;1.42;;
19671;SDS011;9983;51.114;13.788;2024-02-14T06:34:57;1.63;;;1.13;;
19671;SDS011;9983;51.114;13.788;2024-02-14T06:39:57;2.00;;;1.42;;
19671;SDS011;9983;51.114;13.788;2024-02-14T06:44:58;2.53;;;2.05;;
19671;SDS011;9983;51.114;13.788;2024-02-14T06:49:58;1.65;;;1.27;;
19671;SDS011;9983;51.114;13.788;2024-02-14T06:54:58;2.50;;;1.38;;
19671;SDS011;9983;51.114;13.788;2024-02-14T06:59:58;1.95;;;1.48;;
19671;SDS011;9983;51.114;13.788;2024-02-14T07:04:58;1.67;;;1.00;;
19671;SDS011;9983;51.114;13.788;2024-02-14T07:09:58;1.35;;;1.17;;
19671;SDS011;9983;51.114;13.788;2024-02-14T07:14:59;1.15;;;1.05;;
19671;SDS011;9983;51.114;13.788;2024-02-14T07:19:59;3.63;;;1.80;;
19671;SDS011;9983;51.114;13.788;2024-02-14T07:24:59;1.65;;;1.50;;
19671;SDS011;9983;51.114;13.788;2024-02-14T07:29:59;4.95;;;1.30;;
19671;SDS011;9983;51.114;13.788;2024-02-14T07:34:59;1.33;;;1.23;;
19671;SDS011;9983;51.114;13.788;2024-02-14T07:39:59;3.20;;;1.50;;
19671;SDS011;9983;51.114;13.788;2024-02-14T07:44:59;1.70;;;1.33;;
19671;SDS011;9983;51.114;13.788;2024-02-14T07:50:00;2.25;;;1.17;;
19671;SDS011;9983;51.114;13.788;2024-02-14T07:55:00;3.58;;;1.55;;
19671;SDS011;9983;51.114;13.788;2024-02-14T08:00:00;2.45;;;1.08;;
19671;SDS011;9983;51.114;13.788;2024-02-14T08:05:00;1.50;;;0.80;;
19671;SDS011;9983;51.114;13.788;2024-02-14T08:10:01;1.33;;;1.00;;
19671;SDS011;9983;51.114;13.788;2024-02-14T08:15:01;1.00;;;0.82;;
19671;SDS011;9983;51.114;13.788;2024-02-14T08:20:04;2.38;;;1.20;;
19671;SDS011;9983;51.114;13.788;2024-02-14T08:25:04;1.80;;;1.10;;
19671;SDS011;9983;51.114;13.788;2024-02-14T08:30:05;1.25;;;1.10;;
19671;SDS011;9983;51.114;13.788;2024-02-14T08:35:06;2.47;;;1.15;;
19671;SDS011;9983;51.114;13.788;2024-02-14T08:40:07;2.88;;;1.10;;
19671;SDS011;9983;51.114;13.788;2024-02-14T08:45:08;1.60;;;1.30;;
19671;SDS011;9983;51.114;13.788;2024-02-14T08:50:09;1.80;;;0.73;;
19671;SDS011;9983;51.114;13.788;2024-02-14T08:55:09;1.10;;;1.00;;
19671;SDS011;9983;51.114;13.788;2024-02-14T09:00:14;1.13;;;1.00;;
19671;SDS011;9983;51.114;13.788;2024-02-14T09:05:19;2.35;;;1.17;;
19671;SDS011;9983;51.114;13.788;2024-02-14T09:10:19;1.52;;;1.08;;
19671;SDS011;9983;51.114;13.788;2024-02-14T09:15:19;1.40;;;1.27;;
19671;SDS011;9983;51.114;13.788;2024-02-14T09:20:20;1.67;;;1.15;;
19671;SDS011;9983;51.114;13.788;2024-02-14T09:25:20;2.88;;;1.13;;
19671;SDS011;9983;51.114;13.788;2024-02-14T09:30:23;1.30;;;1.00;;
19671;SDS011;9983;51.114;13.788;2024-02-14T09:35:23;1.80;;;1.13;;
19671;SDS011;9983;51.114;13.788;2024-02-14T09:40:25;3.63;;;1.55;;
19671;SDS011;9983;51.114;13.788;2024-02-14T09:45:25;2.97;;;1.38;;
19671;SDS011;9983;51.114;13.788;2024-02-14T09:50:26;2.35;;;1.30;;
19671;SDS011;9983;51.114;13.788;2024-02-14T09:55:26;2.00;;;1.45;;
19671;SDS011;9983;51.114;13.788;2024-02-14T10:00:26;1.83;;;1.73;;
19671;SDS011;9983;51.114;13.788;2024-02-14T10:05:26;1.70;;;1.60;;
19671;SDS011;9983;51.114;13.788;2024-02-14T10:10:27;1.33;;;1.23;;
19671;SDS011;9983;51.114;13.788;2024-02-14T10:15:28;1.48;;;1.38;;
19671;SDS011;9983;51.114;13.788;2024-02-14T10:20:28;4.60;;;1.33;;
19671;SDS011;9983;51.114;13.788;2024-02-14T10:25:30;3.72;;;1.13;;
19671;SDS011;9983;51.114;13.788;2024-02-14T10:30:31;2.05;;;1.67;;
19671;SDS011;9983;51.114;13.788;2024-02-14T10:35:31;2.53;;;1.67;;
19671;SDS011;9983;51.114;13.788;2024-02-14T10:40:32;2.45;;;1.45;;
19671;SDS011;9983;51.114;13.788;2024-02-14T10:45:33;2.45;;;1.70;;
19671;SDS011;9983;51.114;13.788;2024-02-14T10:50:33;3.90;;;1.80;;
19671;SDS011;9983;51.114;13.788;2024-02-14T10:55:35;2.47;;;1.60;;
19671;SDS011;9983;51.114;13.788;2024-02-14T11:00:36;1.83;;;1.67;;
19671;SDS011;9983;51.114;13.788;2024-02-14T11:05:54;2.30;;;1.70;;
19671;SDS011;9983;51.114;13.788;2024-02-14T11:11:00;3.42;;;2.40;;
19671;SDS011;9983;51.114;13.788;2024-02-14T11:16:01;3.20;;;2.50;;
19671;SDS011;9983;51.114;13.788;2024-02-14T11:21:04;3.80;;;1.65;;
19671;SDS011;9983;51.114;13.788;2024-02-14T11:26:05;4.18;;;2.20;;
19671;SDS011;9983;51.114;13.788;2024-02-14T11:31:08;2.85;;;1.90;;
19671;SDS011;9983;51.114;13.788;2024-02-14T11:36:10;3.42;;;1.90;;
19671;SDS011;9983;51.114;13.788;2024-02-14T11:41:10;3.38;;;1.88;;
19671;SDS011;9983;51.114;13.788;2024-02-14T11:46:10;6.80;;;1.80;;
19671;SDS011;9983;51.114;13.788;2024-02-14T11:51:10;2.33;;;1.30;;
19671;SDS011;9983;51.114;13.788;2024-02-14T11:56:11;1.40;;;1.27;;
19671;SDS011;9983;51.114;13.788;2024-02-14T12:01:12;2.75;;;1.27;;
19671;SDS011;9983;51.114;13.788;2024-02-14T12:06:12;1.98;;;1.10;;
19671;SDS011;9983;51.114;13.788;2024-02-14T12:11:13;1.00;;;0.90;;
19671;SDS011;9983;51.114;13.788;2024-02-14T12:16:13;2.03;;;0.85;;
19671;SDS011;9983;51.114;13.788;2024-02-14T12:21:14;3.83;;;1.52;;
19671;SDS011;9983;51.114;13.788;2024-02-14T12:26:14;3.90;;;1.55;;
19671;SDS011;9983;51.114;13.788;2024-02-14T12:31:23;1.75;;;1.00;;
19671;SDS011;9983;51.114;13.788;2024-02-14T12:36:23;0.75;;;0.57;;
19671;SDS011;9983;51.114;13.788;2024-02-14T12:41:23;1.25;;;1.05;;
19671;SDS011;9983;51.114;13.788;2024-02-14T12:46:26;0.80;;;0.80;;
19671;SDS011;9983;51.114;13.788;2024-02-14T12:51:26;1.90;;;1.20;;
19671;SDS011;9983;51.114;13.788;2024-02-14T12:56:28;2.30;;;1.20;;
19671;SDS011;9983;51.114;13.788;2024-02-14T13:01:28;1.98;;;0.93;;
19671;SDS011;9983;51.114;13.788;2024-02-14T13:06:28;1.00;;;0.90;;
19671;SDS011;9983;51.114;13.788;2024-02-14T13:11:29;0.90;;;0.90;;
19671;SDS011;9983;51.114;13.788;2024-02-14T13:16:31;2.03;;;1.00;;
19671;SDS011;9983;51.114;13.788;2024-02-14T13:21:31;1.15;;;0.85;;
19671;SDS011;9983;51.114;13.788;2024-02-14T13:26:33;1.33;;;0.95;;
19671;SDS011;9983;51.114;13.788;2024-02-14T13:31:34;0.90;;;0.80;;
19671;SDS011;9983;51.114;13.788;2024-02-14T13:36:34;1.77;;;1.20;;
19671;SDS011;9983;51.114;13.788;2024-02-14T13:41:34;1.40;;;0.95;;
19671;SDS011;9983;51.114;13.788;2024-02-14T13:46:37;1.75;;;1.00;;
19671;SDS011;9983;51.114;13.788;2024-02-14T13:51:38;0.90;;;0.90;;
19671;SDS011;9983;51.114;13.788;2024-02-14T13:56:38;1.27;;;1.17;;
19671;SDS011;9983;51.114;13.788;2024-02-14T14:01:38;2.42;;;1.40;;
19671;SDS011;9983;51.114;13.788;2024-02-14T14:06:39;4.05;;;1.20;;
19671;SDS011;9983;51.114;13.788;2024-02-14T14:11:39;3.63;;;0.82;;
19671;SDS011;9983;51.114;13.788;2024-02-14T14:16:39;1.50;;;1.20;;
19671;SDS011;9983;51.114;13.788;2024-02-14T14:21:39;0.80;;;0.80;;
19671;SDS011;9983;51.114;13.788;2024-02-14T14:26:39;1.10;;;1.10;;
19671;SDS011;9983;51.114;13.788;2024-02-14T14:31:39;2.22;;;1.50;;
19671;SDS011;9983;51.114;13.788;2024-02-14T14:36:39;1.40;;;1.30;;
19671;SDS011;9983;51.114;13.788;2024-02-14T14:41:41;1.92;;;1.65;;
19671;SDS011;9983;51.114;13.788;2024-02-14T14:46:41;2.28;;;2.08;;
19671;SDS011;9983;51.114;13.788;2024-02-14T14:51:42;1.48;;;1.30;;
19671;SDS011;9983;51.114;13.788;2024-02-14T14:56:42;1.08;;;0.98;;
19671;SDS011;9983;51.114;13.788;2024-02-14T15:01:42;1.58;;;1.48;;
19671;SDS011;9983;51.114;13.788;2024-02-14T15:06:42;1.55;;;1.00;;
19671;SDS011;9983;51.114;13.788;2024-02-14T15:11:43;1.13;;;1.00;;
19671;SDS011;9983;51.114;13.788;2024-02-14T15:16:43;1.10;;;1.10;;
19671;SDS011;9983;51.114;13.788;2024-02-14T15:21:43;1.38;;;1.27;;
19671;SDS011;9983;51.114;13.788;2024-02-14T15:26:43;1.40;;;1.30;;
19671;SDS011;9983;51.114;13.788;2024-02-14T15:31:50;1.20;;;1.10;;
19671;SDS011;9983;51.114;13.788;2024-02-14T15:37:08;1.10;;;1.10;;
19671;SDS011;9983;51.114;13.788;2024-02-14T15:42:09;3.20;;;1.40;;
19671;SDS011;9983;51.114;13.788;2024-02-14T15:47:10;1.23;;;1.10;;
19671;SDS011;9983;51.114;13.788;2024-02-14T15:52:10;2.33;;;1.35;;
19671;SDS011;9983;51.114;13.788;2024-02-14T15:57:11;1.63;;;1.20;;
19671;SDS011;9983;51.114;13.788;2024-02-14T16:02:12;1.50;;;1.13;;
19671;SDS011;9983;51.114;13.788;2024-02-14T16:07:12;1.10;;;1.10;;
19671;SDS011;9983;51.114;13.788;2024-02-14T16:12:12;1.40;;;1.30;;
19671;SDS011;9983;51.114;13.788;2024-02-14T16:17:12;1.77;;;1.13;;
19671;SDS011;9983;51.114;13.788;2024-02-14T16:22:13;2.35;;;1.10;;
19671;SDS011;9983;51.114;13.788;2024-02-14T16:27:13;1.40;;;1.30;;
19671;SDS011;9983;51.114;13.788;2024-02-14T16:32:13;2.55;;;1.50;;
19671;SDS011;9983;51.114;13.788;2024-02-14T16:37:13;5.03;;;1.30;;
19671;SDS011;9983;51.114;13.788;2024-02-14T16:42:16;2.10;;;1.20;;
19671;SDS011;9983;51.114;13.788;2024-02-14T16:47:17;1.88;;;1.35;;
19671;SDS011;9983;51.114;13.788;2024-02-14T16:52:17;2.20;;;1.10;;
19671;SDS011;9983;51.114;13.788;2024-02-14T16:57:17;2.78;;;1.45;;
19671;SDS011;9983;51.114;13.788;2024-02-14T17:02:17;3.50;;;1.13;;
19671;SDS011;9983;51.114;13.788;2024-02-14T17:07:17;1.63;;;1.52;;
19671;SDS011;9983;51.114;13.788;2024-02-14T17:12:17;1.83;;;1.50;;
19671;SDS011;9983;51.114;13.788;2024-02-14T17:17:18;2.70;;;1.38;;
19671;SDS011;9983;51.114;13.788;2024-02-14T17:22:18;1.60;;;1.50;;
19671;SDS011;9983;51.114;13.788;2024-02-14T17:27:18;1.85;;;1.23;;
19671;SDS011;9983;51.114;13.788;2024-02-14T17:32:18;1.88;;;1.55;;
19671;SDS011;9983;51.114;13.788;2024-02-14T17:37:21;1.40;;;1.30;;
19671;SDS011;9983;51.114;13.788;2024-02-14T17:42:21;1.88;;;1.65;;
19671;SDS011;9983;51.114;13.788;2024-02-14T17:47:21;2.10;;;1.40;;
19671;SDS011;9983;51.114;13.788;2024-02-14T17:52:23;2.00;;;1.50;;
19671;SDS011;9983;51.114;13.788;2024-02-14T17:57:23;2.22;;;1.05;;
19671;SDS011;9983;51.114;13.788;2024-02-14T18:02:24;1.42;;;1.33;;
19671;SDS011;9983;51.114;13.788;2024-02-14T18:07:25;2.17;;;1.37;;
19671;SDS011;9983;51.114;13.788;2024-02-14T18:12:25;2.53;;;1.50;;
19671;SDS011;9983;51.114;13.788;2024-02-14T18:17:26;1.33;;;1.23;;
19671;SDS011;9983;51.114;13.788;2024-02-14T18:22:26;1.90;;;1.45;;
19671;SDS011;9983;51.114;13.788;2024-02-14T18:27:27;1.35;;;1.23;;
19671;SDS011;9983;51.114;13.788;2024-02-14T18:32:27;1.92;;;1.65;;
19671;SDS011;9983;51.114;13.788;2024-02-14T18:37:27;1.13;;;1.02;;
19671;SDS011;9983;51.114;13.788;2024-02-14T18:42:27;2.28;;;1.42;;
19671;SDS011;9983;51.114;13.788;2024-02-14T18:47:28;1.40;;;1.30;;
19671;SDS011;9983;51.114;13.788;2024-02-14T18:52:28;1.33;;;1.27;;
19671;SDS011;9983;51.114;13.788;2024-02-14T18:57:28;1.60;;;1.50;;
19671;SDS011;9983;51.114;13.788;2024-02-14T19:02:29;2.88;;;1.83;;
19671;SDS011;9983;51.114;13.788;2024-02-14T19:07:36;1.92;;;1.40;;
19671;SDS011;9983;51.114;13.788;2024-02-14T19:12:36;1.73;;;1.63;;
19671;SDS011;9983;51.114;13.788;2024-02-14T19:17:36;1.65;;;1.48;;
19671;SDS011;9983;51.114;13.788;2024-02-14T19:22:37;1.48;;;1.38;;
19671;SDS011;9983;51.114;13.788;2024-02-14T19:27:38;1.58;;;1.45;;
19671;SDS011;9983;51.114;13.788;2024-02-14T19:32:38;1.42;;;1.30;;
19671;SDS011;9983;51.114;13.788;2024-02-14T19:37:40;2.40;;;1.58;;
19671;SDS011;9983;51.114;13.788;2024-02-14T19:42:40;1.42;;;1.25;;
19671;SDS011;9983;51.114;13.788;2024-02-14T19:47:40;2.58;;;1.65;;
19671;SDS011;9983;51.114;13.788;2024-02-14T19:52:41;1.42;;;1.33;;
19671;SDS011;9983;51.114;13.788;2024-02-14T19:57:41;2.85;;;1.60;;
19671;SDS011;9983;51.114;13.788;2024-02-14T20:02:41;1.90;;;1.40;;
19671;SDS011;9983;51.114;13.788;2024-02-14T20:07:41;1.40;;;1.30;;
19671;SDS011;9983;51.114;13.788;2024-02-14T20:12:42;1.25;;;1.15;;
19671;SDS011;9983;51.114;13.788;2024-02-14T20:17:43;2.33;;;1.30;;
19671;SDS011;9983;51.114;13.788;2024-02-14T20:22:44;1.90;;;1.80;;
19671;SDS011;9983;51.114;13.788;2024-02-14T20:27:44;2.03;;;1.45;;
19671;SDS011;9983;51.114;13.788;2024-02-14T20:32:45;3.67;;;1.33;;
19671;SDS011;9983;51.114;13.788;2024-02-14T20:37:45;2.13;;;1.42;;
19671;SDS011;9983;51.114;13.788;2024-02-14T20:42:46;2.10;;;1.88;;
19671;SDS011;9983;51.114;13.788;2024-02-14T20:47:46;3.45;;;1.88;;
19671;SDS011;9983;51.114;13.788;2024-02-14T20:52:47;2.13;;;1.83;;
19671;SDS011;9983;51.114;13.788;2024-02-14T20:57:47;1.60;;;1.40;;
19671;SDS011;9983;51.114;13.788;2024-02-14T21:02:47;1.50;;;1.40;;
19671;SDS011;9983;51.114;13.788;2024-02-14T21:07:47;2.42;;;1.67;;
19671;SDS011;9983;51.114;13.788;2024-02-14T21:12:47;1.75;;;1.48;;
19671;SDS011;9983;51.114;13.788;2024-02-14T21:17:47;2.55;;;1.55;;
19671;SDS011;9983;51.114;13.788;2024-02-14T21:22:47;3.15;;;1.42;;
19671;SDS011;9983;51.114;13.788;2024-02-14T21:27:48;3.53;;;3.22;;
19671;SDS011;9983;51.114;13.788;2024-02-14T21:32:49;1.70;;;1.55;;
19671;SDS011;9983;51.114;13.788;2024-02-14T21:37:49;1.85;;;1.75;;
19671;SDS011;9983;51.114;13.788;2024-02-14T21:42:49;1.15;;;1.15;;
19671;SDS011;9983;51.114;13.788;2024-02-14T21:47:49;2.70;;;1.50;;
19671;SDS011;9983;51.114;13.788;2024-02-14T21:52:49;1.52;;;1.42;;
19671;SDS011;9983;51.114;13.788;2024-02-14T21:57:50;1.38;;;1.27;;
19671;SDS011;9983;51.114;13.788;2024-02-14T22:02:50;2.08;;;1.27;;
19671;SDS011;9983;51.114;13.788;2024-02-14T22:07:51;2.92;;;1.45;;
19671;SDS011;9983;51.114;13.788;2024-02-14T22:12:52;1.55;;;1.20;;
19671;SDS011;9983;51.114;13.788;2024-02-14T22:17:53;2.75;;;1.70;;
19671;SDS011;9983;51.114;13.788;2024-02-14T22:22:54;3.10;;;1.92;;
19671;SDS011;9983;51.114;13.788;2024-02-14T22:27:54;4.20;;;2.15;;
19671;SDS011;9983;51.114;13.788;2024-02-14T22:32:54;2.42;;;2.00;;
19671;SDS011;9983;51.114;13.788;2024-02-14T22:37:54;2.75;;;1.98;;
19671;SDS011;9983;51.114;13.788;2024-02-14T22:42:55;2.17;;;1.80;;
19671;SDS011;9983;51.114;13.788;2024-02-14T22:47:55;2.88;;;1.95;;
19671;SDS011;9983;51.114;13.788;2024-02-14T22:52:55;2.60;;;1.95;;
19671;SDS011;9983;51.114;13.788;2024-02-14T22:57:55;3.47;;;2.13;;
19671;SDS011;9983;51.114;13.788;2024-02-14T23:02:55;3.47;;;2.20;;
19671;SDS011;9983;51.114;13.788;2024-02-14T23:07:55;2.35;;;2.15;;
19671;SDS011;9983;51.114;13.788;2024-02-14T23:12:58;4.65;;;2.30;;
19671;SDS011;9983;51.114;13.788;2024-02-14T23:17:58;2.67;;;2.30;;
19671;SDS011;9983;51.114;13.788;2024-02-14T23:22:58;2.85;;;2.28;;
19671;SDS011;9983;51.114;13.788;2024-02-14T23:27:58;6.15;;;2.10;;
19671;SDS011;9983;51.114;13.788;2024-02-14T23:32:59;2.40;;;2.20;;
19671;SDS011;9983;51.114;13.788;2024-02-14T23:37:59;1.75;;;1.45;;
19671;SDS011;9983;51.114;13.788;2024-02-14T23:42:59;4.38;;;2.15;;
19671;SDS011;9983;51.114;13.788;2024-02-14T23:48:00;4.90;;;2.17;;
19671;SDS011;9983;51.114;13.788;2024-02-14T23:53:00;2.10;;;1.98;;
19671;SDS011;9983;51.114;13.788;2024-02-14T23:58:00;2.43;;;1.90;;
